Time;durP1;ratioP1;P1;durP2;ratioP2;P2;SDS_P1;SDS_P2;PMS_P1;PMS_P2;Temp;Humidity;BMP_temperature;BMP_pressure;BME280_temperature;BME280_humidity;BME280_pressure;Samples;Min_cycle;Max_cycle;Signal;HPM_P1;HPM_P2
2023/02/16 00:13:43;;;;;;;65.65;30.30;;;;;;;-1.92;71.79;101008.00;30853603;28;96692;-67
2023/02/16 00:26:13;;;;;;;65.78;30.75;;;;;;;-2.03;72.40;101013.69;30852362;28;97180;-66
2023/02/16 00:56:41;;;;;;;70.97;33.20;;;;;;;-2.30;72.54;101015.78;30785207;28;96943;-67
2023/02/16 01:11:42;;;;;;;78.20;31.60;;;;;;;-2.40;72.37;100990.06;30748261;28;96778;-65
2023/02/16 01:26:46;;;;;;;79.55;30.17;;;;;;;-2.48;72.67;101002.59;30745717;28;96749;-66
2023/02/16 01:42:15;;;;;;;75.57;33.60;;;;;;;-2.53;73.18;100995.88;30744772;28;96990;-66
2023/02/16 01:57:43;;;;;;;63.20;29.90;;;;;;;-2.61;73.15;100964.91;30737957;28;96666;-66
2023/02/16 02:13:05;;;;;;;70.18;31.58;;;;;;;-2.64;73.75;100958.09;30742250;28;97416;-66
2023/02/16 02:28:16;;;;;;;74.57;33.92;;;;;;;-2.58;73.69;100941.31;30740649;28;96828;-66
2023/02/16 02:43:25;;;;;;;85.75;35.67;;;;;;;-2.65;74.17;100935.50;30739371;28;97159;-66
2023/02/16 03:13:55;;;;;;;75.68;33.40;;;;;;;-2.70;74.62;100927.03;30736124;28;96724;-67
2023/02/16 03:44:16;;;;;;;73.50;32.67;;;;;;;-2.94;75.30;100921.09;30733120;28;97724;-65
2023/02/16 03:59:19;;;;;;;80.43;34.85;;;;;;;-2.87;75.65;100929.53;30732385;28;96855;-66
2023/02/16 04:14:19;;;;;;;67.68;31.00;;;;;;;-2.81;75.69;100918.84;30734467;28;96561;-66
2023/02/16 04:29:20;;;;;;;65.93;30.92;;;;;;;-2.97;75.95;100922.09;30750061;28;96730;-68
2023/02/16 04:44:20;;;;;;;68.03;32.63;;;;;;;-2.92;75.70;100919.31;30748507;28;97069;-66
2023/02/16 04:59:21;;;;;;;73.07;30.42;;;;;;;-3.00;75.63;100908.34;30747324;28;96670;-66
2023/02/16 05:14:42;;;;;;;65.35;33.47;;;;;;;-3.08;76.36;100909.50;30742040;28;97868;-66
2023/02/16 05:29:42;;;;;;;69.15;33.28;;;;;;;-3.04;75.69;100896.38;30757270;28;96777;-67
2023/02/16 05:44:42;;;;;;;71.63;34.88;;;;;;;-3.04;76.17;100909.41;30857550;28;98123;-67
2023/02/16 05:59:43;;;;;;;80.43;33.47;;;;;;;-3.12;76.07;100926.19;30803782;28;97215;-69
2023/02/16 06:14:43;;;;;;;68.15;34.55;;;;;;;-3.00;76.85;100929.22;30717734;28;96882;-66
2023/02/16 06:29:44;;;;;;;76.82;34.88;;;;;;;-2.67;76.62;100931.28;30782684;28;98082;-73
2023/02/16 06:44:44;;;;;;;75.22;35.25;;;;;;;-1.86;76.99;100942.41;30778336;28;98998;-73
2023/02/16 06:59:44;;;;;;;82.70;37.38;;;;;;;-1.19;76.32;100937.44;30807583;28;97573;-67
2023/02/16 07:14:45;;;;;;;83.72;37.33;;;;;;;-0.50;76.21;100935.72;30840202;28;97035;-71
2023/02/16 07:29:45;;;;;;;80.93;35.38;;;;;;;0.35;75.55;100932.91;30736493;28;97281;-73
2023/02/16 07:44:46;;;;;;;78.53;38.15;;;;;;;1.05;74.85;100929.78;30727821;28;97280;-68
2023/02/16 07:59:49;;;;;;;71.05;35.58;;;;;;;2.45;72.29;100925.56;30733803;28;97784;-66
2023/02/16 08:14:50;;;;;;;85.93;40.17;;;;;;;3.46;71.62;100911.78;30739268;28;96653;-67
2023/02/16 08:29:50;;;;;;;67.18;32.13;;;;;;;5.02;70.44;100906.66;30729393;28;96789;-68
2023/02/16 08:44:51;;;;;;;61.13;30.38;;;;;;;6.60;68.34;100905.72;30732925;28;97134;-67
2023/02/16 09:00:32;;;;;;;40.77;20.43;;;;;;;10.91;63.81;100904.69;30801796;28;96586;-70
2023/02/16 09:15:13;;;;;;;30.73;16.50;;;;;;;16.47;52.65;100914.81;30857174;28;97063;-70
2023/02/16 09:30:13;;;;;;;27.13;15.53;;;;;;;21.84;44.73;100907.94;30863402;28;97513;-65
2023/02/16 09:45:17;;;;;;;27.00;14.88;;;;;;;23.71;31.84;100901.41;30861867;28;97105;-67
2023/02/16 10:00:31;;;;;;;22.37;14.37;;;;;;;25.24;25.86;100893.47;30770532;28;97450;-65
2023/02/16 10:15:33;;;;;;;20.53;14.17;;;;;;;25.61;22.08;100887.44;30770310;28;96841;-64
2023/02/16 10:30:34;;;;;;;26.03;15.67;;;;;;;25.71;21.10;100903.09;30803462;28;97402;-66
2023/02/16 10:45:55;;;;;;;21.50;14.25;;;;;;;24.05;21.87;100898.03;30818636;28;97464;-63
2023/02/16 11:00:55;;;;;;;28.17;16.33;;;;;;;24.64;21.71;100884.94;30783247;28;96839;-65
2023/02/16 11:15:59;;;;;;;22.88;14.77;;;;;;;26.15;20.69;100872.25;30730971;28;96803;-65
2023/02/16 11:31:08;;;;;;;23.00;15.07;;;;;;;28.57;18.50;100865.28;30729740;28;96655;-64
2023/02/16 11:46:17;;;;;;;22.87;13.93;;;;;;;27.87;18.93;100876.63;30729642;28;97042;-64
2023/02/16 12:01:23;;;;;;;;;;;;;;;25.19;20.44;100857.97;30731025;28;97479;-64
2023/02/16 12:16:55;;;;;;;23.23;14.80;;;;;;;26.43;19.85;100845.72;30731664;28;97586;-63
2023/02/16 12:32:01;;;;;;;27.27;17.83;;;;;;;24.40;20.83;100839.84;30740597;28;96712;-64
2023/02/16 12:47:05;;;;;;;25.13;16.47;;;;;;;22.43;23.99;100832.22;30813829;28;97085;-67
2023/02/16 13:02:20;;;;;;;27.03;17.73;;;;;;;17.46;29.51;100813.50;30863156;28;97344;-66
2023/02/16 13:17:32;;;;;;;36.13;17.93;;;;;;;17.98;30.08;100805.81;30865885;28;96610;-69
2023/02/16 13:32:42;;;;;;;26.47;16.10;;;;;;;18.98;28.88;100778.00;30857298;28;97498;-66
2023/02/16 13:47:43;;;;;;;31.37;16.10;;;;;;;19.66;29.09;100770.50;30829320;28;97447;-65
2023/02/16 14:02:53;;;;;;;27.88;17.17;;;;;;;21.45;27.09;100769.94;30854490;28;98115;-68
2023/02/16 14:17:53;;;;;;;27.70;16.07;;;;;;;21.85;25.74;100765.06;30856635;28;98000;-64
2023/02/16 14:33:25;;;;;;;27.63;15.17;;;;;;;19.76;28.19;100754.63;30857119;28;97069;-65
2023/02/16 14:48:38;;;;;;;26.23;14.37;;;;;;;21.40;26.55;100734.56;30862254;28;97284;-65
2023/02/16 15:03:44;;;;;;;27.60;17.77;;;;;;;20.22;27.58;100723.72;30853981;28;97309;-65
2023/02/16 15:18:52;;;;;;;29.57;15.83;;;;;;;17.00;31.59;100730.63;30805677;28;97498;-62
2023/02/16 15:33:55;;;;;;;27.80;16.37;;;;;;;13.60;35.30;100728.97;30821053;28;97092;-62
2023/02/16 15:48:56;;;;;;;32.03;16.10;;;;;;;10.99;39.90;100736.81;30764740;28;96889;-62
2023/02/16 16:04:21;;;;;;;39.27;17.37;;;;;;;8.88;43.81;100724.75;30720957;28;97104;-61
2023/02/16 16:19:34;;;;;;;32.27;17.00;;;;;;;7.41;46.48;100718.75;30736352;28;96636;-62
2023/02/16 16:34:39;;;;;;;38.97;18.77;;;;;;;6.56;48.97;100724.28;30739067;28;96963;-62
2023/02/16 16:49:51;;;;;;;39.92;19.80;;;;;;;5.79;50.91;100735.94;30737720;28;96837;-62
2023/02/16 17:04:51;;;;;;;34.95;18.20;;;;;;;5.25;52.71;100740.31;30852210;28;97299;-62
2023/02/16 17:19:52;;;;;;;45.50;22.52;;;;;;;4.70;53.86;100750.72;30863317;28;96704;-63
2023/02/16 17:34:52;;;;;;;39.08;20.52;;;;;;;4.31;55.28;100755.47;30863361;28;97398;-63
2023/02/16 17:49:52;;;;;;;48.97;25.38;;;;;;;3.95;55.90;100744.91;30863503;28;96766;-63
2023/02/16 18:04:54;;;;;;;42.58;21.65;;;;;;;3.63;56.47;100753.38;30859070;28;96739;-63
2023/02/16 18:19:55;;;;;;;51.53;22.45;;;;;;;3.25;57.86;100742.97;30856634;28;96860;-63
2023/02/16 18:34:55;;;;;;;44.50;21.17;;;;;;;2.98;59.21;100752.72;30864883;28;98505;-63
2023/02/16 18:49:56;;;;;;;52.45;24.13;;;;;;;2.80;59.37;100751.34;30848315;28;97484;-63
2023/02/16 19:04:56;;;;;;;70.20;31.75;;;;;;;2.64;60.21;100744.53;30845021;28;97481;-64
2023/02/16 19:19:56;;;;;;;53.22;25.52;;;;;;;2.68;60.87;100751.25;30842917;28;97735;-65
2023/02/16 19:34:57;;;;;;;49.28;23.90;;;;;;;2.69;61.20;100739.78;30842323;28;96796;-69
2023/02/16 19:49:57;;;;;;;47.22;22.05;;;;;;;2.56;61.28;100731.06;30842997;28;97577;-66
2023/02/16 20:04:58;;;;;;;47.30;24.70;;;;;;;2.49;61.78;100729.78;30766961;28;96753;-71
2023/02/16 20:19:58;;;;;;;49.83;24.90;;;;;;;2.52;61.99;100730.41;30842982;28;97472;-70
2023/02/16 20:35:02;;;;;;;58.35;25.67;;;;;;;2.54;61.83;100732.94;30767622;28;98515;-66
2023/02/16 20:50:04;;;;;;;55.23;25.43;;;;;;;2.53;62.20;100726.00;30833557;28;97359;-72
2023/02/16 21:05:06;;;;;;;55.47;26.25;;;;;;;2.64;62.63;100733.16;30858015;28;97007;-65
2023/02/16 21:20:07;;;;;;;58.08;25.73;;;;;;;2.43;62.57;100722.31;30862131;28;97147;-77
2023/02/16 21:35:08;;;;;;;50.42;25.08;;;;;;;2.16;62.90;100723.22;30865123;28;97455;-72
2023/02/16 21:50:08;;;;;;;54.83;22.80;;;;;;;2.10;63.18;100718.38;30865548;28;97329;-75
2023/02/16 22:05:11;;;;;;;51.35;23.95;;;;;;;2.14;64.07;100720.69;30863786;28;96699;-70
2023/02/16 22:20:11;;;;;;;56.30;25.67;;;;;;;2.31;64.20;100698.53;30862207;28;97350;-77
2023/02/16 22:35:12;;;;;;;58.10;24.58;;;;;;;2.26;63.69;100698.00;30859008;28;97143;-65
2023/02/16 22:50:12;;;;;;;54.13;24.70;;;;;;;2.00;64.26;100697.97;30860957;28;97263;-74
2023/02/16 23:05:13;;;;;;;56.38;28.30;;;;;;;1.90;64.16;100681.16;30859871;28;96623;-77
2023/02/16 23:20:13;;;;;;;64.63;29.88;;;;;;;1.70;64.83;100677.22;30857026;28;96826;-76
2023/02/16 23:35:14;;;;;;;51.33;25.00;;;;;;;2.10;65.03;100665.81;30856832;28;96736;-76
2023/02/16 23:50:14;;;;;;;40.55;20.05;;;;;;;2.31;65.36;100655.63;30856215;28;96664;-76
